sensor_id;sensor_type;location;lat;lon;timestamp;P1;durP1;ratioP1;P2;durP2;ratioP2
12048;SDS011;6085;49.452;8.502;2023-06-26T00:03:21;6.13;;;5.63;;
12048;SDS011;6085;49.452;8.502;2023-06-26T00:07:25;6.60;;;5.90;;
12048;SDS011;6085;49.452;8.502;2023-06-26T00:11:27;6.75;;;5.45;;
12048;SDS011;6085;49.452;8.502;2023-06-26T00:15:33;6.65;;;6.05;;
12048;SDS011;6085;49.452;8.502;2023-06-26T00:19:36;7.18;;;5.60;;
12048;SDS011;6085;49.452;8.502;2023-06-26T00:23:38;6.25;;;5.65;;
12048;SDS011;6085;49.452;8.502;2023-06-26T00:27:40;6.45;;;5.80;;
12048;SDS011;6085;49.452;8.502;2023-06-26T00:31:42;6.05;;;5.53;;
12048;SDS011;6085;49.452;8.502;2023-06-26T00:35:45;6.05;;;5.45;;
12048;SDS011;6085;49.452;8.502;2023-06-26T00:39:47;7.40;;;6.00;;
12048;SDS011;6085;49.452;8.502;2023-06-26T00:43:49;5.90;;;5.22;;
12048;SDS011;6085;49.452;8.502;2023-06-26T00:47:52;6.07;;;5.47;;
12048;SDS011;6085;49.452;8.502;2023-06-26T00:51:55;6.78;;;5.85;;
12048;SDS011;6085;49.452;8.502;2023-06-26T00:55:58;6.47;;;5.63;;
12048;SDS011;6085;49.452;8.502;2023-06-26T01:00:03;5.30;;;4.80;;
12048;SDS011;6085;49.452;8.502;2023-06-26T01:04:06;5.82;;;5.22;;
12048;SDS011;6085;49.452;8.502;2023-06-26T01:08:09;6.65;;;5.30;;
12048;SDS011;6085;49.452;8.502;2023-06-26T01:12:12;5.72;;;5.18;;
12048;SDS011;6085;49.452;8.502;2023-06-26T01:16:15;5.82;;;5.30;;
12048;SDS011;6085;49.452;8.502;2023-06-26T01:20:19;5.85;;;5.35;;
12048;SDS011;6085;49.452;8.502;2023-06-26T01:24:23;6.45;;;5.78;;
12048;SDS011;6085;49.452;8.502;2023-06-26T01:28:28;6.45;;;5.72;;
12048;SDS011;6085;49.452;8.502;2023-06-26T01:32:31;6.25;;;5.35;;
12048;SDS011;6085;49.452;8.502;2023-06-26T01:36:34;6.85;;;5.43;;
12048;SDS011;6085;49.452;8.502;2023-06-26T01:40:37;6.45;;;5.53;;
12048;SDS011;6085;49.452;8.502;2023-06-26T01:44:42;6.70;;;5.93;;
12048;SDS011;6085;49.452;8.502;2023-06-26T01:48:50;7.75;;;5.78;;
12048;SDS011;6085;49.452;8.502;2023-06-26T01:52:59;6.75;;;6.05;;
12048;SDS011;6085;49.452;8.502;2023-06-26T01:57:05;7.03;;;5.57;;
12048;SDS011;6085;49.452;8.502;2023-06-26T02:01:11;5.97;;;5.45;;
12048;SDS011;6085;49.452;8.502;2023-06-26T02:05:13;6.90;;;5.30;;
12048;SDS011;6085;49.452;8.502;2023-06-26T02:09:15;7.20;;;5.50;;
12048;SDS011;6085;49.452;8.502;2023-06-26T02:13:17;6.95;;;6.18;;
12048;SDS011;6085;49.452;8.502;2023-06-26T02:17:21;7.05;;;6.35;;
12048;SDS011;6085;49.452;8.502;2023-06-26T02:21:23;6.97;;;6.15;;
12048;SDS011;6085;49.452;8.502;2023-06-26T02:25:25;6.68;;;5.95;;
12048;SDS011;6085;49.452;8.502;2023-06-26T02:29:27;7.53;;;6.10;;
12048;SDS011;6085;49.452;8.502;2023-06-26T02:33:30;7.03;;;5.97;;
12048;SDS011;6085;49.452;8.502;2023-06-26T02:37:33;6.47;;;5.80;;
12048;SDS011;6085;49.452;8.502;2023-06-26T02:41:35;5.80;;;5.30;;
12048;SDS011;6085;49.452;8.502;2023-06-26T02:45:37;5.90;;;5.35;;
12048;SDS011;6085;49.452;8.502;2023-06-26T02:49:41;6.05;;;5.55;;
12048;SDS011;6085;49.452;8.502;2023-06-26T02:53:43;5.60;;;5.15;;
12048;SDS011;6085;49.452;8.502;2023-06-26T02:57:45;5.45;;;4.97;;
12048;SDS011;6085;49.452;8.502;2023-06-26T03:01:47;5.57;;;5.07;;
12048;SDS011;6085;49.452;8.502;2023-06-26T03:05:50;5.38;;;4.97;;
12048;SDS011;6085;49.452;8.502;2023-06-26T03:09:52;6.95;;;4.65;;
12048;SDS011;6085;49.452;8.502;2023-06-26T03:13:54;5.07;;;4.68;;
12048;SDS011;6085;49.452;8.502;2023-06-26T03:17:56;5.38;;;4.88;;
12048;SDS011;6085;49.452;8.502;2023-06-26T03:22:00;5.10;;;4.70;;
12048;SDS011;6085;49.452;8.502;2023-06-26T03:26:03;4.97;;;4.47;;
12048;SDS011;6085;49.452;8.502;2023-06-26T03:30:06;5.20;;;4.80;;
12048;SDS011;6085;49.452;8.502;2023-06-26T03:34:08;5.22;;;4.75;;
12048;SDS011;6085;49.452;8.502;2023-06-26T03:38:12;5.05;;;4.53;;
12048;SDS011;6085;49.452;8.502;2023-06-26T03:42:14;5.38;;;4.88;;
12048;SDS011;6085;49.452;8.502;2023-06-26T03:46:17;6.40;;;4.88;;
12048;SDS011;6085;49.452;8.502;2023-06-26T03:50:19;5.75;;;5.25;;
12048;SDS011;6085;49.452;8.502;2023-06-26T03:54:22;7.53;;;5.45;;
12048;SDS011;6085;49.452;8.502;2023-06-26T03:58:24;5.82;;;5.25;;
12048;SDS011;6085;49.452;8.502;2023-06-26T04:02:26;5.88;;;5.28;;
12048;SDS011;6085;49.452;8.502;2023-06-26T04:06:28;5.90;;;5.30;;
12048;SDS011;6085;49.452;8.502;2023-06-26T04:10:32;7.65;;;6.05;;
12048;SDS011;6085;49.452;8.502;2023-06-26T04:14:36;6.78;;;6.18;;
12048;SDS011;6085;49.452;8.502;2023-06-26T04:18:38;7.10;;;6.50;;
12048;SDS011;6085;49.452;8.502;2023-06-26T04:22:40;6.93;;;6.32;;
12048;SDS011;6085;49.452;8.502;2023-06-26T04:26:43;6.80;;;6.10;;
12048;SDS011;6085;49.452;8.502;2023-06-26T04:30:46;6.80;;;5.70;;
12048;SDS011;6085;49.452;8.502;2023-06-26T04:34:51;6.95;;;5.65;;
12048;SDS011;6085;49.452;8.502;2023-06-26T04:38:53;6.28;;;5.68;;
12048;SDS011;6085;49.452;8.502;2023-06-26T04:42:57;6.32;;;5.72;;
12048;SDS011;6085;49.452;8.502;2023-06-26T04:46:59;7.10;;;6.03;;
12048;SDS011;6085;49.452;8.502;2023-06-26T04:51:00;8.43;;;6.07;;
12048;SDS011;6085;49.452;8.502;2023-06-26T04:55:03;7.43;;;5.95;;
12048;SDS011;6085;49.452;8.502;2023-06-26T04:59:06;6.38;;;5.70;;
12048;SDS011;6085;49.452;8.502;2023-06-26T05:03:13;7.07;;;6.40;;
12048;SDS011;6085;49.452;8.502;2023-06-26T05:07:20;6.45;;;5.85;;
12048;SDS011;6085;49.452;8.502;2023-06-26T05:11:22;6.20;;;5.55;;
12048;SDS011;6085;49.452;8.502;2023-06-26T05:15:27;6.55;;;5.57;;
12048;SDS011;6085;49.452;8.502;2023-06-26T05:19:29;7.22;;;6.50;;
12048;SDS011;6085;49.452;8.502;2023-06-26T05:23:31;6.47;;;5.88;;
12048;SDS011;6085;49.452;8.502;2023-06-26T05:27:34;6.65;;;5.93;;
12048;SDS011;6085;49.452;8.502;2023-06-26T05:31:40;9.15;;;6.95;;
12048;SDS011;6085;49.452;8.502;2023-06-26T05:35:44;8.40;;;6.60;;
12048;SDS011;6085;49.452;8.502;2023-06-26T05:39:47;8.68;;;6.55;;
12048;SDS011;6085;49.452;8.502;2023-06-26T05:43:49;10.15;;;6.78;;
12048;SDS011;6085;49.452;8.502;2023-06-26T05:47:55;9.20;;;6.60;;
12048;SDS011;6085;49.452;8.502;2023-06-26T05:51:58;7.50;;;6.40;;
12048;SDS011;6085;49.452;8.502;2023-06-26T05:56:07;9.55;;;6.88;;
12048;SDS011;6085;49.452;8.502;2023-06-26T06:00:10;7.50;;;6.70;;
12048;SDS011;6085;49.452;8.502;2023-06-26T06:04:14;7.28;;;6.57;;
12048;SDS011;6085;49.452;8.502;2023-06-26T06:08:16;8.38;;;5.63;;
12048;SDS011;6085;49.452;8.502;2023-06-26T06:12:19;6.82;;;6.13;;
12048;SDS011;6085;49.452;8.502;2023-06-26T06:16:23;8.05;;;6.60;;
12048;SDS011;6085;49.452;8.502;2023-06-26T06:20:26;8.82;;;6.40;;
12048;SDS011;6085;49.452;8.502;2023-06-26T06:24:28;6.47;;;5.85;;
12048;SDS011;6085;49.452;8.502;2023-06-26T06:28:30;8.13;;;6.53;;
12048;SDS011;6085;49.452;8.502;2023-06-26T06:32:33;6.85;;;5.70;;
12048;SDS011;6085;49.452;8.502;2023-06-26T06:36:36;6.90;;;6.20;;
12048;SDS011;6085;49.452;8.502;2023-06-26T06:40:38;7.82;;;6.68;;
12048;SDS011;6085;49.452;8.502;2023-06-26T06:44:40;7.07;;;6.28;;
12048;SDS011;6085;49.452;8.502;2023-06-26T06:48:44;7.13;;;6.43;;
12048;SDS011;6085;49.452;8.502;2023-06-26T06:52:48;6.90;;;6.30;;
12048;SDS011;6085;49.452;8.502;2023-06-26T06:56:50;6.90;;;6.20;;
12048;SDS011;6085;49.452;8.502;2023-06-26T07:00:52;6.60;;;6.00;;
12048;SDS011;6085;49.452;8.502;2023-06-26T07:04:54;6.32;;;5.72;;
12048;SDS011;6085;49.452;8.502;2023-06-26T07:08:57;6.30;;;5.68;;
12048;SDS011;6085;49.452;8.502;2023-06-26T07:12:59;6.75;;;6.15;;
12048;SDS011;6085;49.452;8.502;2023-06-26T07:17:02;6.53;;;6.03;;
12048;SDS011;6085;49.452;8.502;2023-06-26T07:21:04;6.43;;;5.93;;
12048;SDS011;6085;49.452;8.502;2023-06-26T07:25:07;7.00;;;5.88;;
12048;SDS011;6085;49.452;8.502;2023-06-26T07:29:10;5.63;;;5.22;;
12048;SDS011;6085;49.452;8.502;2023-06-26T07:33:12;6.53;;;5.93;;
12048;SDS011;6085;49.452;8.502;2023-06-26T07:37:14;7.40;;;6.65;;
12048;SDS011;6085;49.452;8.502;2023-06-26T07:41:17;7.75;;;6.30;;
12048;SDS011;6085;49.452;8.502;2023-06-26T07:45:19;6.28;;;5.68;;
12048;SDS011;6085;49.452;8.502;2023-06-26T07:49:21;6.75;;;6.15;;
12048;SDS011;6085;49.452;8.502;2023-06-26T07:53:23;7.45;;;6.00;;
12048;SDS011;6085;49.452;8.502;2023-06-26T07:57:26;6.40;;;5.90;;
12048;SDS011;6085;49.452;8.502;2023-06-26T08:01:28;6.38;;;5.78;;
12048;SDS011;6085;49.452;8.502;2023-06-26T08:05:30;7.22;;;6.00;;
12048;SDS011;6085;49.452;8.502;2023-06-26T08:09:35;5.93;;;5.40;;
12048;SDS011;6085;49.452;8.502;2023-06-26T08:13:38;6.30;;;5.70;;
12048;SDS011;6085;49.452;8.502;2023-06-26T08:17:40;6.13;;;5.63;;
12048;SDS011;6085;49.452;8.502;2023-06-26T08:21:42;6.40;;;5.88;;
12048;SDS011;6085;49.452;8.502;2023-06-26T08:25:45;6.30;;;5.78;;
12048;SDS011;6085;49.452;8.502;2023-06-26T08:29:50;6.22;;;5.72;;
12048;SDS011;6085;49.452;8.502;2023-06-26T08:33:52;6.22;;;5.65;;
12048;SDS011;6085;49.452;8.502;2023-06-26T08:37:54;6.20;;;5.60;;
12048;SDS011;6085;49.452;8.502;2023-06-26T08:41:56;9.13;;;6.28;;
12048;SDS011;6085;49.452;8.502;2023-06-26T08:46:00;6.75;;;5.88;;
12048;SDS011;6085;49.452;8.502;2023-06-26T08:50:04;5.63;;;5.22;;
12048;SDS011;6085;49.452;8.502;2023-06-26T08:54:10;5.55;;;5.05;;
12048;SDS011;6085;49.452;8.502;2023-06-26T08:58:15;5.72;;;5.20;;
12048;SDS011;6085;49.452;8.502;2023-06-26T09:02:18;5.68;;;5.18;;
12048;SDS011;6085;49.452;8.502;2023-06-26T09:06:21;5.30;;;4.90;;
12048;SDS011;6085;49.452;8.502;2023-06-26T09:10:23;5.22;;;4.82;;
12048;SDS011;6085;49.452;8.502;2023-06-26T09:14:26;5.72;;;5.13;;
12048;SDS011;6085;49.452;8.502;2023-06-26T09:18:30;5.68;;;5.07;;
12048;SDS011;6085;49.452;8.502;2023-06-26T09:22:34;6.85;;;5.05;;
12048;SDS011;6085;49.452;8.502;2023-06-26T09:26:39;6.05;;;5.03;;
12048;SDS011;6085;49.452;8.502;2023-06-26T09:30:42;5.22;;;4.72;;
12048;SDS011;6085;49.452;8.502;2023-06-26T09:34:47;6.65;;;4.78;;
12048;SDS011;6085;49.452;8.502;2023-06-26T09:38:49;4.80;;;4.40;;
12048;SDS011;6085;49.452;8.502;2023-06-26T09:42:51;6.03;;;4.90;;
12048;SDS011;6085;49.452;8.502;2023-06-26T09:46:54;5.20;;;4.70;;
12048;SDS011;6085;49.452;8.502;2023-06-26T09:50:58;6.00;;;5.00;;
12048;SDS011;6085;49.452;8.502;2023-06-26T09:55:08;5.30;;;4.90;;
12048;SDS011;6085;49.452;8.502;2023-06-26T09:59:11;5.22;;;4.80;;
12048;SDS011;6085;49.452;8.502;2023-06-26T10:03:13;5.28;;;4.88;;
12048;SDS011;6085;49.452;8.502;2023-06-26T10:07:16;6.07;;;5.13;;
12048;SDS011;6085;49.452;8.502;2023-06-26T10:11:21;5.20;;;4.70;;
12048;SDS011;6085;49.452;8.502;2023-06-26T10:15:24;5.78;;;5.20;;
12048;SDS011;6085;49.452;8.502;2023-06-26T10:19:27;5.97;;;5.38;;
12048;SDS011;6085;49.452;8.502;2023-06-26T10:23:32;4.95;;;4.60;;
12048;SDS011;6085;49.452;8.502;2023-06-26T10:27:36;5.53;;;5.03;;
12048;SDS011;6085;49.452;8.502;2023-06-26T10:31:42;7.03;;;5.40;;
12048;SDS011;6085;49.452;8.502;2023-06-26T10:35:47;6.63;;;5.50;;
12048;SDS011;6085;49.452;8.502;2023-06-26T10:39:51;6.50;;;5.90;;
12048;SDS011;6085;49.452;8.502;2023-06-26T10:44:05;6.13;;;5.53;;
12048;SDS011;6085;49.452;8.502;2023-06-26T10:48:08;7.35;;;5.50;;
12048;SDS011;6085;49.452;8.502;2023-06-26T10:52:10;5.10;;;4.70;;
12048;SDS011;6085;49.452;8.502;2023-06-26T10:56:14;5.97;;;5.47;;
12048;SDS011;6085;49.452;8.502;2023-06-26T11:00:16;5.85;;;5.25;;
12048;SDS011;6085;49.452;8.502;2023-06-26T11:04:19;6.25;;;5.75;;
12048;SDS011;6085;49.452;8.502;2023-06-26T11:08:44;6.38;;;5.88;;
12048;SDS011;6085;49.452;8.502;2023-06-26T11:12:49;5.85;;;5.25;;
12048;SDS011;6085;49.452;8.502;2023-06-26T11:16:52;6.07;;;5.47;;
12048;SDS011;6085;49.452;8.502;2023-06-26T11:21:03;5.55;;;5.05;;
12048;SDS011;6085;49.452;8.502;2023-06-26T11:25:06;5.38;;;4.57;;
12048;SDS011;6085;49.452;8.502;2023-06-26T11:29:11;5.07;;;4.68;;
12048;SDS011;6085;49.452;8.502;2023-06-26T11:33:13;4.70;;;4.30;;
12048;SDS011;6085;49.452;8.502;2023-06-26T11:37:16;5.05;;;4.63;;
12048;SDS011;6085;49.452;8.502;2023-06-26T11:41:19;5.18;;;4.70;;
12048;SDS011;6085;49.452;8.502;2023-06-26T11:45:22;4.70;;;4.30;;
12048;SDS011;6085;49.452;8.502;2023-06-26T11:49:25;4.93;;;4.53;;
12048;SDS011;6085;49.452;8.502;2023-06-26T11:53:27;5.03;;;4.53;;
12048;SDS011;6085;49.452;8.502;2023-06-26T11:57:30;4.88;;;4.30;;
12048;SDS011;6085;49.452;8.502;2023-06-26T12:01:33;6.13;;;4.60;;
12048;SDS011;6085;49.452;8.502;2023-06-26T12:05:36;5.15;;;4.75;;
12048;SDS011;6085;49.452;8.502;2023-06-26T12:09:38;4.57;;;4.18;;
12048;SDS011;6085;49.452;8.502;2023-06-26T12:13:42;5.90;;;3.92;;
12048;SDS011;6085;49.452;8.502;2023-06-26T12:17:54;5.78;;;4.20;;
12048;SDS011;6085;49.452;8.502;2023-06-26T12:21:56;4.63;;;4.07;;
12048;SDS011;6085;49.452;8.502;2023-06-26T12:25:58;8.85;;;4.60;;
12048;SDS011;6085;49.452;8.502;2023-06-26T12:30:02;4.35;;;3.90;;
12048;SDS011;6085;49.452;8.502;2023-06-26T12:34:10;4.78;;;4.35;;
12048;SDS011;6085;49.452;8.502;2023-06-26T12:38:14;4.95;;;4.40;;
12048;SDS011;6085;49.452;8.502;2023-06-26T12:42:18;4.60;;;4.20;;
12048;SDS011;6085;49.452;8.502;2023-06-26T12:46:21;4.88;;;4.28;;
12048;SDS011;6085;49.452;8.502;2023-06-26T12:50:42;6.68;;;4.80;;
12048;SDS011;6085;49.452;8.502;2023-06-26T12:54:46;5.53;;;4.70;;
12048;SDS011;6085;49.452;8.502;2023-06-26T12:58:52;6.30;;;5.70;;
12048;SDS011;6085;49.452;8.502;2023-06-26T13:02:54;6.65;;;5.70;;
12048;SDS011;6085;49.452;8.502;2023-06-26T13:06:58;6.63;;;5.78;;
12048;SDS011;6085;49.452;8.502;2023-06-26T13:11:00;6.47;;;5.78;;
12048;SDS011;6085;49.452;8.502;2023-06-26T13:15:03;5.93;;;5.10;;
12048;SDS011;6085;49.452;8.502;2023-06-26T13:19:06;6.38;;;5.80;;
12048;SDS011;6085;49.452;8.502;2023-06-26T13:23:10;8.15;;;6.30;;
12048;SDS011;6085;49.452;8.502;2023-06-26T13:27:12;7.00;;;6.32;;
12048;SDS011;6085;49.452;8.502;2023-06-26T13:31:16;8.50;;;7.70;;
12048;SDS011;6085;49.452;8.502;2023-06-26T13:35:18;8.00;;;7.25;;
12048;SDS011;6085;49.452;8.502;2023-06-26T13:39:21;8.20;;;7.38;;
12048;SDS011;6085;49.452;8.502;2023-06-26T13:43:23;9.23;;;6.32;;
12048;SDS011;6085;49.452;8.502;2023-06-26T13:47:25;6.70;;;5.97;;
12048;SDS011;6085;49.452;8.502;2023-06-26T13:51:27;6.63;;;5.25;;
12048;SDS011;6085;49.452;8.502;2023-06-26T13:55:30;6.47;;;4.72;;
12048;SDS011;6085;49.452;8.502;2023-06-26T13:59:32;4.85;;;3.45;;
12048;SDS011;6085;49.452;8.502;2023-06-26T14:03:35;4.05;;;3.47;;
12048;SDS011;6085;49.452;8.502;2023-06-26T14:07:36;8.35;;;2.92;;
12048;SDS011;6085;49.452;8.502;2023-06-26T14:11:40;4.18;;;2.78;;
12048;SDS011;6085;49.452;8.502;2023-06-26T14:15:42;3.72;;;2.60;;
12048;SDS011;6085;49.452;8.502;2023-06-26T14:19:44;3.88;;;2.47;;
12048;SDS011;6085;49.452;8.502;2023-06-26T14:23:47;4.20;;;2.10;;
12048;SDS011;6085;49.452;8.502;2023-06-26T14:27:50;3.08;;;2.10;;
12048;SDS011;6085;49.452;8.502;2023-06-26T14:31:52;2.63;;;2.03;;
12048;SDS011;6085;49.452;8.502;2023-06-26T14:35:54;3.20;;;1.95;;
12048;SDS011;6085;49.452;8.502;2023-06-26T14:39:56;4.68;;;1.92;;
12048;SDS011;6085;49.452;8.502;2023-06-26T14:44:00;3.13;;;2.17;;
12048;SDS011;6085;49.452;8.502;2023-06-26T14:48:02;2.20;;;2.00;;
12048;SDS011;6085;49.452;8.502;2023-06-26T14:52:04;2.47;;;1.92;;
12048;SDS011;6085;49.452;8.502;2023-06-26T14:56:06;2.53;;;2.10;;
12048;SDS011;6085;49.452;8.502;2023-06-26T15:00:10;2.15;;;1.80;;
12048;SDS011;6085;49.452;8.502;2023-06-26T15:04:13;4.72;;;2.47;;
12048;SDS011;6085;49.452;8.502;2023-06-26T15:08:15;3.50;;;2.13;;
12048;SDS011;6085;49.452;8.502;2023-06-26T15:12:17;2.30;;;1.83;;
12048;SDS011;6085;49.452;8.502;2023-06-26T15:16:20;2.75;;;2.17;;
12048;SDS011;6085;49.452;8.502;2023-06-26T15:20:23;3.80;;;1.88;;
12048;SDS011;6085;49.452;8.502;2023-06-26T15:24:25;2.85;;;1.90;;
12048;SDS011;6085;49.452;8.502;2023-06-26T15:28:27;2.03;;;1.90;;
12048;SDS011;6085;49.452;8.502;2023-06-26T15:32:30;2.83;;;2.15;;
12048;SDS011;6085;49.452;8.502;2023-06-26T15:36:32;3.47;;;1.98;;
12048;SDS011;6085;49.452;8.502;2023-06-26T15:40:34;3.20;;;1.67;;
12048;SDS011;6085;49.452;8.502;2023-06-26T15:44:36;2.50;;;2.30;;
12048;SDS011;6085;49.452;8.502;2023-06-26T15:48:39;2.42;;;1.88;;
12048;SDS011;6085;49.452;8.502;2023-06-26T15:52:41;3.70;;;2.10;;
12048;SDS011;6085;49.452;8.502;2023-06-26T15:56:44;2.85;;;1.90;;
12048;SDS011;6085;49.452;8.502;2023-06-26T16:00:46;3.45;;;2.00;;
12048;SDS011;6085;49.452;8.502;2023-06-26T16:04:50;3.35;;;1.92;;
12048;SDS011;6085;49.452;8.502;2023-06-26T16:08:51;4.13;;;1.50;;
12048;SDS011;6085;49.452;8.502;2023-06-26T16:12:53;2.30;;;1.90;;
12048;SDS011;6085;49.452;8.502;2023-06-26T16:16:55;3.35;;;1.75;;
12048;SDS011;6085;49.452;8.502;2023-06-26T16:20:59;1.73;;;1.55;;
12048;SDS011;6085;49.452;8.502;2023-06-26T16:25:01;3.25;;;1.92;;
12048;SDS011;6085;49.452;8.502;2023-06-26T16:29:03;3.83;;;1.80;;
12048;SDS011;6085;49.452;8.502;2023-06-26T16:33:05;3.00;;;1.58;;
12048;SDS011;6085;49.452;8.502;2023-06-26T16:37:09;2.08;;;1.60;;
12048;SDS011;6085;49.452;8.502;2023-06-26T16:41:11;3.30;;;1.73;;
12048;SDS011;6085;49.452;8.502;2023-06-26T16:45:13;2.75;;;1.73;;
12048;SDS011;6085;49.452;8.502;2023-06-26T16:49:15;3.40;;;1.30;;
12048;SDS011;6085;49.452;8.502;2023-06-26T16:53:18;1.83;;;1.50;;
12048;SDS011;6085;49.452;8.502;2023-06-26T16:57:21;2.95;;;1.60;;
12048;SDS011;6085;49.452;8.502;2023-06-26T17:01:23;2.38;;;1.65;;
12048;SDS011;6085;49.452;8.502;2023-06-26T17:05:25;2.35;;;1.65;;
12048;SDS011;6085;49.452;8.502;2023-06-26T17:09:28;2.05;;;1.65;;
12048;SDS011;6085;49.452;8.502;2023-06-26T17:13:30;1.65;;;1.25;;
12048;SDS011;6085;49.452;8.502;2023-06-26T17:17:32;2.20;;;1.50;;
12048;SDS011;6085;49.452;8.502;2023-06-26T17:21:35;3.55;;;2.08;;
12048;SDS011;6085;49.452;8.502;2023-06-26T17:25:39;4.03;;;1.60;;
12048;SDS011;6085;49.452;8.502;2023-06-26T17:29:41;4.82;;;2.05;;
12048;SDS011;6085;49.452;8.502;2023-06-26T17:33:45;2.95;;;1.80;;
12048;SDS011;6085;49.452;8.502;2023-06-26T17:37:47;2.03;;;1.83;;
12048;SDS011;6085;49.452;8.502;2023-06-26T17:41:51;4.35;;;1.95;;
12048;SDS011;6085;49.452;8.502;2023-06-26T17:45:53;2.03;;;1.83;;
12048;SDS011;6085;49.452;8.502;2023-06-26T17:49:55;3.70;;;1.92;;
12048;SDS011;6085;49.452;8.502;2023-06-26T17:53:57;3.38;;;1.83;;
12048;SDS011;6085;49.452;8.502;2023-06-26T17:58:00;2.10;;;1.67;;
12048;SDS011;6085;49.452;8.502;2023-06-26T18:02:02;3.65;;;2.10;;
12048;SDS011;6085;49.452;8.502;2023-06-26T18:06:05;3.40;;;2.08;;
12048;SDS011;6085;49.452;8.502;2023-06-26T18:10:07;3.35;;;1.45;;
12048;SDS011;6085;49.452;8.502;2023-06-26T18:14:11;3.10;;;1.67;;
12048;SDS011;6085;49.452;8.502;2023-06-26T18:18:13;2.97;;;1.60;;
12048;SDS011;6085;49.452;8.502;2023-06-26T18:22:15;3.03;;;1.60;;
12048;SDS011;6085;49.452;8.502;2023-06-26T18:26:17;4.07;;;1.80;;
12048;SDS011;6085;49.452;8.502;2023-06-26T18:30:20;2.42;;;1.55;;
12048;SDS011;6085;49.452;8.502;2023-06-26T18:34:22;1.80;;;1.70;;
12048;SDS011;6085;49.452;8.502;2023-06-26T18:38:24;3.25;;;2.08;;
12048;SDS011;6085;49.452;8.502;2023-06-26T18:42:26;4.75;;;1.77;;
12048;SDS011;6085;49.452;8.502;2023-06-26T18:46:30;3.47;;;1.88;;
12048;SDS011;6085;49.452;8.502;2023-06-26T18:50:32;6.32;;;2.30;;
12048;SDS011;6085;49.452;8.502;2023-06-26T18:54:34;3.17;;;1.90;;
12048;SDS011;6085;49.452;8.502;2023-06-26T18:58:36;4.43;;;1.90;;
12048;SDS011;6085;49.452;8.502;2023-06-26T19:02:39;3.17;;;1.83;;
12048;SDS011;6085;49.452;8.502;2023-06-26T19:06:41;3.85;;;2.00;;
12048;SDS011;6085;49.452;8.502;2023-06-26T19:10:43;4.22;;;2.30;;
12048;SDS011;6085;49.452;8.502;2023-06-26T19:14:46;3.63;;;2.40;;
12048;SDS011;6085;49.452;8.502;2023-06-26T19:18:51;4.22;;;2.20;;
12048;SDS011;6085;49.452;8.502;2023-06-26T19:22:53;2.78;;;1.88;;
12048;SDS011;6085;49.452;8.502;2023-06-26T19:26:56;1.60;;;1.50;;
12048;SDS011;6085;49.452;8.502;2023-06-26T19:30:58;4.28;;;1.90;;
12048;SDS011;6085;49.452;8.502;2023-06-26T19:35:01;2.20;;;1.85;;
12048;SDS011;6085;49.452;8.502;2023-06-26T19:39:04;3.40;;;1.65;;
12048;SDS011;6085;49.452;8.502;2023-06-26T19:43:06;2.88;;;1.40;;
12048;SDS011;6085;49.452;8.502;2023-06-26T19:47:08;2.03;;;1.50;;
12048;SDS011;6085;49.452;8.502;2023-06-26T19:51:12;3.05;;;1.48;;
12048;SDS011;6085;49.452;8.502;2023-06-26T19:55:14;2.83;;;1.58;;
12048;SDS011;6085;49.452;8.502;2023-06-26T19:59:16;3.17;;;1.90;;
12048;SDS011;6085;49.452;8.502;2023-06-26T20:03:19;5.57;;;1.92;;
12048;SDS011;6085;49.452;8.502;2023-06-26T20:07:23;3.97;;;2.10;;
12048;SDS011;6085;49.452;8.502;2023-06-26T20:11:25;2.35;;;1.70;;
12048;SDS011;6085;49.452;8.502;2023-06-26T20:15:27;3.30;;;1.58;;
12048;SDS011;6085;49.452;8.502;2023-06-26T20:19:29;2.67;;;1.40;;
12048;SDS011;6085;49.452;8.502;2023-06-26T20:23:33;2.47;;;1.60;;
12048;SDS011;6085;49.452;8.502;2023-06-26T20:27:35;2.63;;;1.48;;
12048;SDS011;6085;49.452;8.502;2023-06-26T20:31:37;3.53;;;1.73;;
12048;SDS011;6085;49.452;8.502;2023-06-26T20:35:39;3.28;;;1.88;;
12048;SDS011;6085;49.452;8.502;2023-06-26T20:39:42;2.58;;;1.58;;
12048;SDS011;6085;49.452;8.502;2023-06-26T20:43:45;2.67;;;1.40;;
12048;SDS011;6085;49.452;8.502;2023-06-26T20:47:47;2.03;;;1.80;;
12048;SDS011;6085;49.452;8.502;2023-06-26T20:51:50;3.55;;;1.70;;
12048;SDS011;6085;49.452;8.502;2023-06-26T20:55:56;1.95;;;1.50;;
12048;SDS011;6085;49.452;8.502;2023-06-26T20:59:59;5.03;;;1.70;;
12048;SDS011;6085;49.452;8.502;2023-06-26T21:04:01;2.38;;;1.60;;
12048;SDS011;6085;49.452;8.502;2023-06-26T21:08:03;3.63;;;1.75;;
12048;SDS011;6085;49.452;8.502;2023-06-26T21:12:07;4.25;;;1.90;;
12048;SDS011;6085;49.452;8.502;2023-06-26T21:16:09;3.47;;;1.63;;
12048;SDS011;6085;49.452;8.502;2023-06-26T21:20:11;3.13;;;1.52;;
12048;SDS011;6085;49.452;8.502;2023-06-26T21:24:13;3.63;;;1.83;;
12048;SDS011;6085;49.452;8.502;2023-06-26T21:28:16;2.30;;;1.58;;
12048;SDS011;6085;49.452;8.502;2023-06-26T21:32:19;4.13;;;1.80;;
12048;SDS011;6085;49.452;8.502;2023-06-26T21:36:21;2.83;;;1.83;;
12048;SDS011;6085;49.452;8.502;2023-06-26T21:40:23;3.83;;;1.52;;
12048;SDS011;6085;49.452;8.502;2023-06-26T21:44:26;3.03;;;1.90;;
12048;SDS011;6085;49.452;8.502;2023-06-26T21:48:28;3.47;;;2.00;;
12048;SDS011;6085;49.452;8.502;2023-06-26T21:52:29;3.10;;;1.77;;
12048;SDS011;6085;49.452;8.502;2023-06-26T21:56:31;2.30;;;1.60;;
12048;SDS011;6085;49.452;8.502;2023-06-26T22:00:35;2.80;;;1.73;;
12048;SDS011;6085;49.452;8.502;2023-06-26T22:04:37;3.45;;;1.45;;
12048;SDS011;6085;49.452;8.502;2023-06-26T22:08:39;2.67;;;1.60;;
12048;SDS011;6085;49.452;8.502;2023-06-26T22:12:40;5.85;;;1.60;;
12048;SDS011;6085;49.452;8.502;2023-06-26T22:16:45;2.63;;;1.75;;
12048;SDS011;6085;49.452;8.502;2023-06-26T22:20:47;3.03;;;1.70;;
12048;SDS011;6085;49.452;8.502;2023-06-26T22:24:50;2.33;;;1.60;;
12048;SDS011;6085;49.452;8.502;2023-06-26T22:28:52;2.67;;;1.73;;
12048;SDS011;6085;49.452;8.502;2023-06-26T22:32:55;2.13;;;1.65;;
12048;SDS011;6085;49.452;8.502;2023-06-26T22:36:58;3.22;;;1.40;;
12048;SDS011;6085;49.452;8.502;2023-06-26T22:41:00;3.00;;;1.83;;
12048;SDS011;6085;49.452;8.502;2023-06-26T22:45:02;2.78;;;1.52;;
12048;SDS011;6085;49.452;8.502;2023-06-26T22:49:06;3.97;;;1.73;;
12048;SDS011;6085;49.452;8.502;2023-06-26T22:53:12;4.00;;;1.67;;
12048;SDS011;6085;49.452;8.502;2023-06-26T22:57:17;1.55;;;1.40;;
12048;SDS011;6085;49.452;8.502;2023-06-26T23:01:19;3.17;;;1.70;;
12048;SDS011;6085;49.452;8.502;2023-06-26T23:05:22;3.72;;;1.83;;
12048;SDS011;6085;49.452;8.502;2023-06-26T23:09:25;3.50;;;2.00;;
12048;SDS011;6085;49.452;8.502;2023-06-26T23:13:27;3.35;;;2.25;;
12048;SDS011;6085;49.452;8.502;2023-06-26T23:17:29;2.22;;;1.73;;
12048;SDS011;6085;49.452;8.502;2023-06-26T23:21:32;4.35;;;1.70;;
12048;SDS011;6085;49.452;8.502;2023-06-26T23:25:35;4.25;;;1.70;;
12048;SDS011;6085;49.452;8.502;2023-06-26T23:29:37;2.55;;;1.52;;
12048;SDS011;6085;49.452;8.502;2023-06-26T23:33:41;1.70;;;1.58;;
12048;SDS011;6085;49.452;8.502;2023-06-26T23:37:44;3.33;;;1.52;;
12048;SDS011;6085;49.452;8.502;2023-06-26T23:41:53;2.88;;;1.90;;
12048;SDS011;6085;49.452;8.502;2023-06-26T23:45:55;2.08;;;1.30;;
12048;SDS011;6085;49.452;8.502;2023-06-26T23:49:58;2.45;;;1.73;;
12048;SDS011;6085;49.452;8.502;2023-06-26T23:54:01;3.83;;;2.03;;
12048;SDS011;6085;49.452;8.502;2023-06-26T23:58:04;3.38;;;2.20;;
